sensor_id;sensor_type;location;lat;lon;timestamp;pressure;altitude;pressure_sealevel;temperature
15845;BMP180;50807;52.436;13.346;2023-03-14T00:00:01;98771.00;;;16.60
15845;BMP180;50807;52.436;13.346;2023-03-14T00:00:39;98776.00;;;16.60
15845;BMP180;50807;52.436;13.346;2023-03-14T00:01:14;98786.00;;;16.60
15845;BMP180;50807;52.436;13.346;2023-03-14T00:01:47;98778.00;;;16.60
15845;BMP180;50807;52.436;13.346;2023-03-14T00:02:22;98791.00;;;16.60
15845;BMP180;50807;52.436;13.346;2023-03-14T00:02:54;98787.00;;;16.60
15845;BMP180;50807;52.436;13.346;2023-03-14T00:03:29;98782.00;;;16.60
15845;BMP180;50807;52.436;13.346;2023-03-14T00:04:04;98780.00;;;16.50
15845;BMP180;50807;52.436;13.346;2023-03-14T00:04:36;98783.00;;;16.60
15845;BMP180;50807;52.436;13.346;2023-03-14T00:05:10;98782.00;;;16.60
15845;BMP180;50807;52.436;13.346;2023-03-14T00:05:42;98777.00;;;16.60
15845;BMP180;50807;52.436;13.346;2023-03-14T00:06:15;98776.00;;;16.60
15845;BMP180;50807;52.436;13.346;2023-03-14T00:06:48;98782.00;;;16.60
15845;BMP180;50807;52.436;13.346;2023-03-14T00:07:20;98786.00;;;16.60
15845;BMP180;50807;52.436;13.346;2023-03-14T00:07:53;98782.00;;;16.60
15845;BMP180;50807;52.436;13.346;2023-03-14T00:08:29;98780.00;;;16.60
15845;BMP180;50807;52.436;13.346;2023-03-14T00:09:00;98769.00;;;16.60
15845;BMP180;50807;52.436;13.346;2023-03-14T00:09:32;98775.00;;;16.60
15845;BMP180;50807;52.436;13.346;2023-03-14T00:10:06;98764.00;;;16.50
15845;BMP180;50807;52.436;13.346;2023-03-14T00:10:39;98773.00;;;16.50
15845;BMP180;50807;52.436;13.346;2023-03-14T00:11:14;98767.00;;;16.50
15845;BMP180;50807;52.436;13.346;2023-03-14T00:11:46;98766.00;;;16.50
15845;BMP180;50807;52.436;13.346;2023-03-14T00:12:19;98764.00;;;16.50
15845;BMP180;50807;52.436;13.346;2023-03-14T00:12:51;98777.00;;;16.50
15845;BMP180;50807;52.436;13.346;2023-03-14T00:13:24;98772.00;;;16.50
15845;BMP180;50807;52.436;13.346;2023-03-14T00:14:07;98759.00;;;16.50
15845;BMP180;50807;52.436;13.346;2023-03-14T00:14:41;98774.00;;;16.40
15845;BMP180;50807;52.436;13.346;2023-03-14T00:15:14;98769.00;;;16.50
15845;BMP180;50807;52.436;13.346;2023-03-14T00:16:02;98748.00;;;16.40
15845;BMP180;50807;52.436;13.346;2023-03-14T00:16:34;98752.00;;;16.40
15845;BMP180;50807;52.436;13.346;2023-03-14T00:17:10;98739.00;;;16.40
15845;BMP180;50807;52.436;13.346;2023-03-14T00:17:49;98733.00;;;16.40
15845;BMP180;50807;52.436;13.346;2023-03-14T00:18:43;98727.00;;;16.20
15845;BMP180;50807;52.436;13.346;2023-03-14T00:19:18;98729.00;;;16.30
15845;BMP180;50807;52.436;13.346;2023-03-14T00:19:54;98704.00;;;16.20
15845;BMP180;50807;52.436;13.346;2023-03-14T00:20:35;98737.00;;;16.30
15845;BMP180;50807;52.436;13.346;2023-03-14T00:21:10;98731.00;;;16.30
15845;BMP180;50807;52.436;13.346;2023-03-14T00:21:43;98732.00;;;16.30
15845;BMP180;50807;52.436;13.346;2023-03-14T00:22:15;98730.00;;;16.30
15845;BMP180;50807;52.436;13.346;2023-03-14T00:22:48;98731.00;;;16.30
15845;BMP180;50807;52.436;13.346;2023-03-14T00:23:21;98734.00;;;16.30
15845;BMP180;50807;52.436;13.346;2023-03-14T00:23:59;98739.00;;;16.30
15845;BMP180;50807;52.436;13.346;2023-03-14T00:24:35;98721.00;;;16.20
15845;BMP180;50807;52.436;13.346;2023-03-14T00:25:11;98719.00;;;16.30
15845;BMP180;50807;52.436;13.346;2023-03-14T00:25:44;98719.00;;;16.30
15845;BMP180;50807;52.436;13.346;2023-03-14T00:26:20;98725.00;;;16.20
15845;BMP180;50807;52.436;13.346;2023-03-14T00:26:57;98724.00;;;16.20
15845;BMP180;50807;52.436;13.346;2023-03-14T00:27:30;98714.00;;;16.20
15845;BMP180;50807;52.436;13.346;2023-03-14T00:28:04;98726.00;;;16.20
15845;BMP180;50807;52.436;13.346;2023-03-14T00:28:38;98714.00;;;16.20
15845;BMP180;50807;52.436;13.346;2023-03-14T00:29:11;98712.00;;;16.20
15845;BMP180;50807;52.436;13.346;2023-03-14T00:29:45;98718.00;;;16.20
15845;BMP180;50807;52.436;13.346;2023-03-14T00:30:18;98718.00;;;16.20
15845;BMP180;50807;52.436;13.346;2023-03-14T00:30:57;98718.00;;;16.10
15845;BMP180;50807;52.436;13.346;2023-03-14T00:31:29;98719.00;;;16.20
15845;BMP180;50807;52.436;13.346;2023-03-14T00:32:01;98716.00;;;16.20
15845;BMP180;50807;52.436;13.346;2023-03-14T00:32:34;98717.00;;;16.20
15845;BMP180;50807;52.436;13.346;2023-03-14T00:33:06;98713.00;;;16.20
15845;BMP180;50807;52.436;13.346;2023-03-14T00:33:39;98712.00;;;16.20
15845;BMP180;50807;52.436;13.346;2023-03-14T00:34:12;98703.00;;;16.20
15845;BMP180;50807;52.436;13.346;2023-03-14T00:34:44;98710.00;;;16.20
15845;BMP180;50807;52.436;13.346;2023-03-14T00:35:25;98690.00;;;16.00
15845;BMP180;50807;52.436;13.346;2023-03-14T00:36:00;98710.00;;;16.10
15845;BMP180;50807;52.436;13.346;2023-03-14T00:36:32;98707.00;;;16.10
15845;BMP180;50807;52.436;13.346;2023-03-14T00:37:06;98692.00;;;16.10
15845;BMP180;50807;52.436;13.346;2023-03-14T00:37:38;98701.00;;;16.10
15845;BMP180;50807;52.436;13.346;2023-03-14T00:38:20;98694.00;;;16.00
15845;BMP180;50807;52.436;13.346;2023-03-14T00:38:56;98683.00;;;16.00
15845;BMP180;50807;52.436;13.346;2023-03-14T00:39:33;98670.00;;;16.00
15845;BMP180;50807;52.436;13.346;2023-03-14T00:40:12;98690.00;;;16.00
15845;BMP180;50807;52.436;13.346;2023-03-14T00:40:48;98694.00;;;16.10
15845;BMP180;50807;52.436;13.346;2023-03-14T00:41:25;98688.00;;;16.10
15845;BMP180;50807;52.436;13.346;2023-03-14T00:41:57;98693.00;;;16.00
15845;BMP180;50807;52.436;13.346;2023-03-14T00:42:32;98707.00;;;16.00
15845;BMP180;50807;52.436;13.346;2023-03-14T00:43:06;98693.00;;;16.10
15845;BMP180;50807;52.436;13.346;2023-03-14T00:43:39;98706.00;;;16.10
15845;BMP180;50807;52.436;13.346;2023-03-14T00:44:12;98710.00;;;16.10
15845;BMP180;50807;52.436;13.346;2023-03-14T00:44:46;98694.00;;;16.10
15845;BMP180;50807;52.436;13.346;2023-03-14T00:45:21;98694.00;;;16.00
15845;BMP180;50807;52.436;13.346;2023-03-14T00:45:54;98721.00;;;16.00
15845;BMP180;50807;52.436;13.346;2023-03-14T00:46:27;98715.00;;;16.00
15845;BMP180;50807;52.436;13.346;2023-03-14T00:47:00;98711.00;;;16.00
15845;BMP180;50807;52.436;13.346;2023-03-14T00:47:32;98719.00;;;16.10
15845;BMP180;50807;52.436;13.346;2023-03-14T00:48:06;98716.00;;;16.00
15845;BMP180;50807;52.436;13.346;2023-03-14T00:48:41;98705.00;;;16.00
15845;BMP180;50807;52.436;13.346;2023-03-14T00:49:14;98698.00;;;16.10
15845;BMP180;50807;52.436;13.346;2023-03-14T00:49:49;98709.00;;;16.00
15845;BMP180;50807;52.436;13.346;2023-03-14T00:50:29;98720.00;;;15.90
15845;BMP180;50807;52.436;13.346;2023-03-14T00:51:07;98707.00;;;16.00
15845;BMP180;50807;52.436;13.346;2023-03-14T00:51:39;98709.00;;;16.00
15845;BMP180;50807;52.436;13.346;2023-03-14T00:52:11;98702.00;;;16.00
15845;BMP180;50807;52.436;13.346;2023-03-14T00:52:44;98719.00;;;16.00
15845;BMP180;50807;52.436;13.346;2023-03-14T00:53:19;98705.00;;;16.00
15845;BMP180;50807;52.436;13.346;2023-03-14T00:53:51;98712.00;;;16.00
15845;BMP180;50807;52.436;13.346;2023-03-14T00:54:24;98685.00;;;16.00
15845;BMP180;50807;52.436;13.346;2023-03-14T00:54:56;98701.00;;;16.00
15845;BMP180;50807;52.436;13.346;2023-03-14T00:55:31;98698.00;;;16.00
15845;BMP180;50807;52.436;13.346;2023-03-14T00:56:10;98691.00;;;15.90
15845;BMP180;50807;52.436;13.346;2023-03-14T00:56:42;98686.00;;;16.00
15845;BMP180;50807;52.436;13.346;2023-03-14T00:57:14;98693.00;;;16.00
15845;BMP180;50807;52.436;13.346;2023-03-14T00:57:47;98690.00;;;16.00
15845;BMP180;50807;52.436;13.346;2023-03-14T00:58:19;98677.00;;;16.00
15845;BMP180;50807;52.436;13.346;2023-03-14T00:58:56;98687.00;;;15.90
15845;BMP180;50807;52.436;13.346;2023-03-14T00:59:39;98688.00;;;16.00
15845;BMP180;50807;52.436;13.346;2023-03-14T01:00:12;98671.00;;;15.90
15845;BMP180;50807;52.436;13.346;2023-03-14T01:00:46;98692.00;;;15.90
15845;BMP180;50807;52.436;13.346;2023-03-14T01:01:22;98666.00;;;15.90
15845;BMP180;50807;52.436;13.346;2023-03-14T01:01:54;98678.00;;;16.00
15845;BMP180;50807;52.436;13.346;2023-03-14T01:02:26;98679.00;;;15.90
15845;BMP180;50807;52.436;13.346;2023-03-14T01:03:00;98677.00;;;15.90
15845;BMP180;50807;52.436;13.346;2023-03-14T01:03:32;98669.00;;;16.00
15845;BMP180;50807;52.436;13.346;2023-03-14T01:04:04;98674.00;;;15.90
15845;BMP180;50807;52.436;13.346;2023-03-14T01:04:37;98676.00;;;15.90
15845;BMP180;50807;52.436;13.346;2023-03-14T01:05:11;98671.00;;;15.90
15845;BMP180;50807;52.436;13.346;2023-03-14T01:05:44;98673.00;;;15.90
15845;BMP180;50807;52.436;13.346;2023-03-14T01:06:19;98679.00;;;15.90
15845;BMP180;50807;52.436;13.346;2023-03-14T01:06:54;98672.00;;;16.00
15845;BMP180;50807;52.436;13.346;2023-03-14T01:07:36;98656.00;;;15.80
15845;BMP180;50807;52.436;13.346;2023-03-14T01:08:17;98646.00;;;15.80
15845;BMP180;50807;52.436;13.346;2023-03-14T01:08:50;98670.00;;;15.90
15845;BMP180;50807;52.436;13.346;2023-03-14T01:09:27;98665.00;;;15.80
15845;BMP180;50807;52.436;13.346;2023-03-14T01:10:00;98672.00;;;15.90
15845;BMP180;50807;52.436;13.346;2023-03-14T01:10:32;98648.00;;;15.90
15845;BMP180;50807;52.436;13.346;2023-03-14T01:11:08;98676.00;;;15.90
15845;BMP180;50807;52.436;13.346;2023-03-14T01:11:46;98673.00;;;15.80
15845;BMP180;50807;52.436;13.346;2023-03-14T01:12:20;98663.00;;;15.90
15845;BMP180;50807;52.436;13.346;2023-03-14T01:12:53;98689.00;;;15.90
15845;BMP180;50807;52.436;13.346;2023-03-14T01:13:25;98655.00;;;15.90
15845;BMP180;50807;52.436;13.346;2023-03-14T01:14:03;98663.00;;;15.90
15845;BMP180;50807;52.436;13.346;2023-03-14T01:14:36;98684.00;;;15.90
15845;BMP180;50807;52.436;13.346;2023-03-14T01:15:10;98684.00;;;15.90
15845;BMP180;50807;52.436;13.346;2023-03-14T01:15:42;98689.00;;;15.80
15845;BMP180;50807;52.436;13.346;2023-03-14T01:16:17;98675.00;;;15.80
15845;BMP180;50807;52.436;13.346;2023-03-14T01:16:52;98692.00;;;15.80
15845;BMP180;50807;52.436;13.346;2023-03-14T01:17:26;98682.00;;;15.80
15845;BMP180;50807;52.436;13.346;2023-03-14T01:18:03;98689.00;;;15.80
15845;BMP180;50807;52.436;13.346;2023-03-14T01:18:37;98692.00;;;15.80
15845;BMP180;50807;52.436;13.346;2023-03-14T01:19:12;98696.00;;;15.80
15845;BMP180;50807;52.436;13.346;2023-03-14T01:19:48;98704.00;;;15.80
15845;BMP180;50807;52.436;13.346;2023-03-14T01:20:25;98702.00;;;15.80
15845;BMP180;50807;52.436;13.346;2023-03-14T01:20:59;98685.00;;;15.80
15845;BMP180;50807;52.436;13.346;2023-03-14T01:21:36;98718.00;;;15.70
15845;BMP180;50807;52.436;13.346;2023-03-14T01:22:08;98704.00;;;15.70
15845;BMP180;50807;52.436;13.346;2023-03-14T01:22:42;98735.00;;;15.80
15845;BMP180;50807;52.436;13.346;2023-03-14T01:23:16;98726.00;;;15.80
15845;BMP180;50807;52.436;13.346;2023-03-14T01:23:49;98729.00;;;15.80
15845;BMP180;50807;52.436;13.346;2023-03-14T01:24:21;98740.00;;;15.80
15845;BMP180;50807;52.436;13.346;2023-03-14T01:24:55;98718.00;;;15.80
15845;BMP180;50807;52.436;13.346;2023-03-14T01:25:28;98737.00;;;15.80
15845;BMP180;50807;52.436;13.346;2023-03-14T01:26:07;98731.00;;;15.80
15845;BMP180;50807;52.436;13.346;2023-03-14T01:26:43;98727.00;;;15.70
15845;BMP180;50807;52.436;13.346;2023-03-14T01:27:18;98717.00;;;15.70
15845;BMP180;50807;52.436;13.346;2023-03-14T01:27:51;98734.00;;;15.70
15845;BMP180;50807;52.436;13.346;2023-03-14T01:28:27;98710.00;;;15.70
15845;BMP180;50807;52.436;13.346;2023-03-14T01:29:00;98728.00;;;15.70
15845;BMP180;50807;52.436;13.346;2023-03-14T01:29:35;98713.00;;;15.70
15845;BMP180;50807;52.436;13.346;2023-03-14T01:30:11;98714.00;;;15.60
15845;BMP180;50807;52.436;13.346;2023-03-14T01:30:46;98726.00;;;15.70
15845;BMP180;50807;52.436;13.346;2023-03-14T01:31:18;98734.00;;;15.70
15845;BMP180;50807;52.436;13.346;2023-03-14T01:31:55;98725.00;;;15.70
15845;BMP180;50807;52.436;13.346;2023-03-14T01:32:26;98722.00;;;15.70
15845;BMP180;50807;52.436;13.346;2023-03-14T01:32:58;98731.00;;;15.70
15845;BMP180;50807;52.436;13.346;2023-03-14T01:33:38;98714.00;;;15.60
15845;BMP180;50807;52.436;13.346;2023-03-14T01:34:13;98745.00;;;15.70
15845;BMP180;50807;52.436;13.346;2023-03-14T01:34:45;98726.00;;;15.70
15845;BMP180;50807;52.436;13.346;2023-03-14T01:35:18;98730.00;;;15.70
15845;BMP180;50807;52.436;13.346;2023-03-14T01:35:53;98738.00;;;15.60
15845;BMP180;50807;52.436;13.346;2023-03-14T01:36:26;98745.00;;;15.60
15845;BMP180;50807;52.436;13.346;2023-03-14T01:36:58;98734.00;;;15.70
15845;BMP180;50807;52.436;13.346;2023-03-14T01:37:34;98735.00;;;15.60
15845;BMP180;50807;52.436;13.346;2023-03-14T01:38:13;98719.00;;;15.60
15845;BMP180;50807;52.436;13.346;2023-03-14T01:38:46;98733.00;;;15.60
15845;BMP180;50807;52.436;13.346;2023-03-14T01:39:19;98731.00;;;15.70
15845;BMP180;50807;52.436;13.346;2023-03-14T01:39:51;98735.00;;;15.70
15845;BMP180;50807;52.436;13.346;2023-03-14T01:40:24;98725.00;;;15.70
15845;BMP180;50807;52.436;13.346;2023-03-14T01:40:57;98723.00;;;15.60
15845;BMP180;50807;52.436;13.346;2023-03-14T01:41:29;98728.00;;;15.70
15845;BMP180;50807;52.436;13.346;2023-03-14T01:42:02;98726.00;;;15.70
15845;BMP180;50807;52.436;13.346;2023-03-14T01:42:35;98742.00;;;15.70
15845;BMP180;50807;52.436;13.346;2023-03-14T01:43:15;98725.00;;;15.60
15845;BMP180;50807;52.436;13.346;2023-03-14T01:43:48;98726.00;;;15.60
15845;BMP180;50807;52.436;13.346;2023-03-14T01:44:22;98728.00;;;15.60
15845;BMP180;50807;52.436;13.346;2023-03-14T01:44:57;98733.00;;;15.60
15845;BMP180;50807;52.436;13.346;2023-03-14T01:46:18;98743.00;;;15.40
15845;BMP180;50807;52.436;13.346;2023-03-14T01:46:52;98741.00;;;15.50
15845;BMP180;50807;52.436;13.346;2023-03-14T01:47:25;98744.00;;;15.50
15845;BMP180;50807;52.436;13.346;2023-03-14T01:47:58;98742.00;;;15.50
15845;BMP180;50807;52.436;13.346;2023-03-14T01:48:37;98746.00;;;15.50
15845;BMP180;50807;52.436;13.346;2023-03-14T01:49:26;98727.00;;;15.50
15845;BMP180;50807;52.436;13.346;2023-03-14T01:50:07;98735.00;;;15.50
15845;BMP180;50807;52.436;13.346;2023-03-14T01:50:41;98745.00;;;15.40
15845;BMP180;50807;52.436;13.346;2023-03-14T01:51:21;98747.00;;;15.40
15845;BMP180;50807;52.436;13.346;2023-03-14T01:51:59;98745.00;;;15.50
15845;BMP180;50807;52.436;13.346;2023-03-14T01:52:36;98746.00;;;15.50
15845;BMP180;50807;52.436;13.346;2023-03-14T01:53:14;98734.00;;;15.50
15845;BMP180;50807;52.436;13.346;2023-03-14T01:53:50;98735.00;;;15.50
15845;BMP180;50807;52.436;13.346;2023-03-14T01:54:30;98736.00;;;15.50
15845;BMP180;50807;52.436;13.346;2023-03-14T01:55:07;98745.00;;;15.50
15845;BMP180;50807;52.436;13.346;2023-03-14T01:55:43;98744.00;;;15.50
15845;BMP180;50807;52.436;13.346;2023-03-14T01:56:18;98723.00;;;15.50
15845;BMP180;50807;52.436;13.346;2023-03-14T01:56:56;98756.00;;;15.50
15845;BMP180;50807;52.436;13.346;2023-03-14T01:57:34;98713.00;;;15.50
15845;BMP180;50807;52.436;13.346;2023-03-14T01:58:13;98718.00;;;15.50
15845;BMP180;50807;52.436;13.346;2023-03-14T01:58:51;98744.00;;;15.50
15845;BMP180;50807;52.436;13.346;2023-03-14T01:59:29;98750.00;;;15.50
15845;BMP180;50807;52.436;13.346;2023-03-14T02:00:07;98740.00;;;15.50
15845;BMP180;50807;52.436;13.346;2023-03-14T02:00:44;98741.00;;;15.50
15845;BMP180;50807;52.436;13.346;2023-03-14T02:01:20;98722.00;;;15.50
15845;BMP180;50807;52.436;13.346;2023-03-14T02:01:57;98723.00;;;15.50
15845;BMP180;50807;52.436;13.346;2023-03-14T02:02:30;98724.00;;;15.60
15845;BMP180;50807;52.436;13.346;2023-03-14T02:03:10;98718.00;;;15.50
15845;BMP180;50807;52.436;13.346;2023-03-14T02:03:52;98703.00;;;15.50
15845;BMP180;50807;52.436;13.346;2023-03-14T02:04:31;98721.00;;;15.40
15845;BMP180;50807;52.436;13.346;2023-03-14T02:05:06;98731.00;;;15.50
15845;BMP180;50807;52.436;13.346;2023-03-14T02:05:40;98724.00;;;15.50
15845;BMP180;50807;52.436;13.346;2023-03-14T02:06:17;98720.00;;;15.40
15845;BMP180;50807;52.436;13.346;2023-03-14T02:06:59;98704.00;;;15.50
15845;BMP180;50807;52.436;13.346;2023-03-14T02:07:40;98713.00;;;15.40
15845;BMP180;50807;52.436;13.346;2023-03-14T02:08:22;98704.00;;;15.40
15845;BMP180;50807;52.436;13.346;2023-03-14T02:08:56;98732.00;;;15.40
15845;BMP180;50807;52.436;13.346;2023-03-14T02:09:28;98702.00;;;15.50
15845;BMP180;50807;52.436;13.346;2023-03-14T02:10:06;98715.00;;;15.50
15845;BMP180;50807;52.436;13.346;2023-03-14T02:10:44;98700.00;;;15.40
15845;BMP180;50807;52.436;13.346;2023-03-14T02:11:26;98697.00;;;15.40
15845;BMP180;50807;52.436;13.346;2023-03-14T02:12:04;98685.00;;;15.40
15845;BMP180;50807;52.436;13.346;2023-03-14T02:12:41;98717.00;;;15.40
15845;BMP180;50807;52.436;13.346;2023-03-14T02:13:17;98693.00;;;15.40
15845;BMP180;50807;52.436;13.346;2023-03-14T02:13:51;98674.00;;;15.40
15845;BMP180;50807;52.436;13.346;2023-03-14T02:14:31;98704.00;;;15.40
15845;BMP180;50807;52.436;13.346;2023-03-14T02:15:17;98708.00;;;15.40
15845;BMP180;50807;52.436;13.346;2023-03-14T02:15:53;98708.00;;;15.40
15845;BMP180;50807;52.436;13.346;2023-03-14T02:16:33;98693.00;;;15.30
15845;BMP180;50807;52.436;13.346;2023-03-14T02:17:07;98696.00;;;15.40
15845;BMP180;50807;52.436;13.346;2023-03-14T02:17:46;98702.00;;;15.30
15845;BMP180;50807;52.436;13.346;2023-03-14T02:18:19;98694.00;;;15.40
15845;BMP180;50807;52.436;13.346;2023-03-14T02:18:54;98682.00;;;15.40
15845;BMP180;50807;52.436;13.346;2023-03-14T02:19:49;98702.00;;;15.30
15845;BMP180;50807;52.436;13.346;2023-03-14T02:20:32;98688.00;;;15.30
15845;BMP180;50807;52.436;13.346;2023-03-14T02:21:19;98714.00;;;15.30
15845;BMP180;50807;52.436;13.346;2023-03-14T02:22:04;98694.00;;;15.20
15845;BMP180;50807;52.436;13.346;2023-03-14T02:22:46;98674.00;;;15.30
15845;BMP180;50807;52.436;13.346;2023-03-14T02:23:32;98677.00;;;15.20
15845;BMP180;50807;52.436;13.346;2023-03-14T02:24:19;98701.00;;;15.20
15845;BMP180;50807;52.436;13.346;2023-03-14T02:25:06;98690.00;;;15.20
15845;BMP180;50807;52.436;13.346;2023-03-14T02:25:49;98706.00;;;15.20
15845;BMP180;50807;52.436;13.346;2023-03-14T02:26:31;98692.00;;;15.20
15845;BMP180;50807;52.436;13.346;2023-03-14T02:27:15;98684.00;;;15.20
15845;BMP180;50807;52.436;13.346;2023-03-14T02:27:48;98683.00;;;15.30
15845;BMP180;50807;52.436;13.346;2023-03-14T02:28:21;98697.00;;;15.30
15845;BMP180;50807;52.436;13.346;2023-03-14T02:28:55;98678.00;;;15.40
15845;BMP180;50807;52.436;13.346;2023-03-14T02:29:29;98695.00;;;15.30
15845;BMP180;50807;52.436;13.346;2023-03-14T02:30:06;98674.00;;;15.30
15845;BMP180;50807;52.436;13.346;2023-03-14T02:30:43;98675.00;;;15.30
15845;BMP180;50807;52.436;13.346;2023-03-14T02:31:16;98670.00;;;15.30
15845;BMP180;50807;52.436;13.346;2023-03-14T02:31:50;98691.00;;;15.40
15845;BMP180;50807;52.436;13.346;2023-03-14T02:32:24;98698.00;;;15.30
15845;BMP180;50807;52.436;13.346;2023-03-14T02:33:00;98679.00;;;15.30
15845;BMP180;50807;52.436;13.346;2023-03-14T02:33:35;98698.00;;;15.40
15845;BMP180;50807;52.436;13.346;2023-03-14T02:34:11;98676.00;;;15.40
15845;BMP180;50807;52.436;13.346;2023-03-14T02:34:46;98676.00;;;15.40
15845;BMP180;50807;52.436;13.346;2023-03-14T02:35:25;98690.00;;;15.30
15845;BMP180;50807;52.436;13.346;2023-03-14T02:36:00;98688.00;;;15.40
15845;BMP180;50807;52.436;13.346;2023-03-14T02:36:34;98676.00;;;15.40
15845;BMP180;50807;52.436;13.346;2023-03-14T02:37:09;98689.00;;;15.40
15845;BMP180;50807;52.436;13.346;2023-03-14T02:37:47;98689.00;;;15.40
15845;BMP180;50807;52.436;13.346;2023-03-14T02:38:26;98689.00;;;15.40
15845;BMP180;50807;52.436;13.346;2023-03-14T02:39:09;98664.00;;;15.30
15845;BMP180;50807;52.436;13.346;2023-03-14T02:39:45;98684.00;;;15.40
15845;BMP180;50807;52.436;13.346;2023-03-14T02:40:26;98686.00;;;15.40
15845;BMP180;50807;52.436;13.346;2023-03-14T02:40:58;98678.00;;;15.40
15845;BMP180;50807;52.436;13.346;2023-03-14T02:41:31;98677.00;;;15.40
15845;BMP180;50807;52.436;13.346;2023-03-14T02:42:04;98662.00;;;15.40
15845;BMP180;50807;52.436;13.346;2023-03-14T02:42:37;98670.00;;;15.40
15845;BMP180;50807;52.436;13.346;2023-03-14T02:43:09;98673.00;;;15.40
15845;BMP180;50807;52.436;13.346;2023-03-14T02:43:42;98693.00;;;15.40
15845;BMP180;50807;52.436;13.346;2023-03-14T02:44:14;98689.00;;;15.50
15845;BMP180;50807;52.436;13.346;2023-03-14T02:45:01;98666.00;;;15.30
15845;BMP180;50807;52.436;13.346;2023-03-14T02:45:54;98663.00;;;15.30
15845;BMP180;50807;52.436;13.346;2023-03-14T02:46:26;98680.00;;;15.40
15845;BMP180;50807;52.436;13.346;2023-03-14T02:47:00;98682.00;;;15.40
15845;BMP180;50807;52.436;13.346;2023-03-14T02:47:41;98680.00;;;15.30
15845;BMP180;50807;52.436;13.346;2023-03-14T02:48:19;98666.00;;;15.30
15845;BMP180;50807;52.436;13.346;2023-03-14T02:48:56;98674.00;;;15.30
15845;BMP180;50807;52.436;13.346;2023-03-14T02:49:32;98680.00;;;15.40
15845;BMP180;50807;52.436;13.346;2023-03-14T02:50:10;98680.00;;;15.30
15845;BMP180;50807;52.436;13.346;2023-03-14T02:50:47;98667.00;;;15.30
15845;BMP180;50807;52.436;13.346;2023-03-14T02:51:21;98680.00;;;15.40
15845;BMP180;50807;52.436;13.346;2023-03-14T02:51:54;98646.00;;;15.40
15845;BMP180;50807;52.436;13.346;2023-03-14T02:52:27;98663.00;;;15.40
15845;BMP180;50807;52.436;13.346;2023-03-14T02:52:59;98642.00;;;15.40
15845;BMP180;50807;52.436;13.346;2023-03-14T02:53:47;98648.00;;;15.30
15845;BMP180;50807;52.436;13.346;2023-03-14T02:54:21;98655.00;;;15.40
15845;BMP180;50807;52.436;13.346;2023-03-14T02:54:56;98660.00;;;15.30
15845;BMP180;50807;52.436;13.346;2023-03-14T02:55:29;98620.00;;;15.40
15845;BMP180;50807;52.436;13.346;2023-03-14T02:56:07;98661.00;;;15.40
15845;BMP180;50807;52.436;13.346;2023-03-14T02:56:39;98638.00;;;15.40
15845;BMP180;50807;52.436;13.346;2023-03-14T02:57:11;98638.00;;;15.40
15845;BMP180;50807;52.436;13.346;2023-03-14T02:57:48;98643.00;;;15.40
15845;BMP180;50807;52.436;13.346;2023-03-14T02:58:19;98648.00;;;15.40
15845;BMP180;50807;52.436;13.346;2023-03-14T02:58:51;98625.00;;;15.40
15845;BMP180;50807;52.436;13.346;2023-03-14T02:59:22;98646.00;;;15.40
15845;BMP180;50807;52.436;13.346;2023-03-14T02:59:53;98659.00;;;15.40
15845;BMP180;50807;52.436;13.346;2023-03-14T03:00:25;98654.00;;;15.40
15845;BMP180;50807;52.436;13.346;2023-03-14T03:00:56;98655.00;;;15.40
15845;BMP180;50807;52.436;13.346;2023-03-14T03:01:28;98647.00;;;15.40
15845;BMP180;50807;52.436;13.346;2023-03-14T03:01:59;98646.00;;;15.40
15845;BMP180;50807;52.436;13.346;2023-03-14T03:02:31;98644.00;;;15.50
15845;BMP180;50807;52.436;13.346;2023-03-14T03:03:03;98648.00;;;15.40
15845;BMP180;50807;52.436;13.346;2023-03-14T03:03:36;98647.00;;;15.40
15845;BMP180;50807;52.436;13.346;2023-03-14T03:04:07;98638.00;;;15.40
15845;BMP180;50807;52.436;13.346;2023-03-14T03:04:39;98641.00;;;15.50
15845;BMP180;50807;52.436;13.346;2023-03-14T03:05:09;98640.00;;;15.40
15845;BMP180;50807;52.436;13.346;2023-03-14T03:05:41;98646.00;;;15.40
15845;BMP180;50807;52.436;13.346;2023-03-14T03:06:15;98640.00;;;15.40
15845;BMP180;50807;52.436;13.346;2023-03-14T03:06:46;98639.00;;;15.40
15845;BMP180;50807;52.436;13.346;2023-03-14T03:07:17;98635.00;;;15.40
15845;BMP180;50807;52.436;13.346;2023-03-14T03:07:49;98626.00;;;15.40
15845;BMP180;50807;52.436;13.346;2023-03-14T03:08:24;98627.00;;;15.40
15845;BMP180;50807;52.436;13.346;2023-03-14T03:08:56;98633.00;;;15.40
15845;BMP180;50807;52.436;13.346;2023-03-14T03:09:28;98612.00;;;15.40
15845;BMP180;50807;52.436;13.346;2023-03-14T03:09:59;98617.00;;;15.40
15845;BMP180;50807;52.436;13.346;2023-03-14T03:10:31;98614.00;;;15.40
15845;BMP180;50807;52.436;13.346;2023-03-14T03:11:03;98617.00;;;15.40
15845;BMP180;50807;52.436;13.346;2023-03-14T03:11:35;98614.00;;;15.40
15845;BMP180;50807;52.436;13.346;2023-03-14T03:12:07;98610.00;;;15.40
15845;BMP180;50807;52.436;13.346;2023-03-14T03:12:37;98620.00;;;15.40
15845;BMP180;50807;52.436;13.346;2023-03-14T03:13:11;98605.00;;;15.40
15845;BMP180;50807;52.436;13.346;2023-03-14T03:13:42;98607.00;;;15.40
15845;BMP180;50807;52.436;13.346;2023-03-14T03:14:13;98603.00;;;15.40
15845;BMP180;50807;52.436;13.346;2023-03-14T03:14:44;98609.00;;;15.40
15845;BMP180;50807;52.436;13.346;2023-03-14T03:15:15;98599.00;;;15.40
15845;BMP180;50807;52.436;13.346;2023-03-14T03:15:47;98606.00;;;15.40
15845;BMP180;50807;52.436;13.346;2023-03-14T03:16:18;98595.00;;;15.40
15845;BMP180;50807;52.436;13.346;2023-03-14T03:16:49;98600.00;;;15.40
15845;BMP180;50807;52.436;13.346;2023-03-14T03:17:21;98599.00;;;15.40
15845;BMP180;50807;52.436;13.346;2023-03-14T03:17:52;98606.00;;;15.40
15845;BMP180;50807;52.436;13.346;2023-03-14T03:18:23;98602.00;;;15.40
15845;BMP180;50807;52.436;13.346;2023-03-14T03:18:55;98598.00;;;15.40
15845;BMP180;50807;52.436;13.346;2023-03-14T03:19:26;98598.00;;;15.40
15845;BMP180;50807;52.436;13.346;2023-03-14T03:19:57;98603.00;;;15.40
15845;BMP180;50807;52.436;13.346;2023-03-14T03:20:29;98598.00;;;15.40